Aérodrome :
LOGIN :

S'inscrire | Disclaimer

   EN    FR    IT 

 










Légende :    VFR   VFR Marginal   IFR   IFR Intensif   IFR Très Intensif
Visi : 
Plafond : 
>= 8 km
>= 3000ft
5 à 8 km
1000 à 3000 ft
1500m à 5 km
500 à 1000 ft
800 à 1500m
200 à 500 ft
< 800m
< 200 ft
Symboles :   Orages  Brouillard  Fortes neiges  Fortes précipitations  Vent > 20 kt
SIGMETs :   Divers  Orages  Givrage  Turbulence  Onde Orograph.  Cendres Volcan.







- Altitude de l'aérodrome : 13 ft
- Code IATA : OST


EBOS - Oostend bruges Int.

DERNIER METAR :
  • 210650Z VRB02KT 7000 NSC 12/11 Q1028 NOSIG

METARs EXPIRÉS :
  • 210620Z VRB02KT 4500 BR NSC 11/10 Q1028 BECMG 6000
  • 210550Z VRB01KT 3500 BR NSC 10/09 Q1028 BECMG 6000
  • 210520Z VRB02KT 2000 R08/P2000N R26/0450D MIFG NSC 08/08 Q1028 BECMG 3500 BR
  • 210450Z 23002KT 2000 R08/P2000N R26/0600N MIFG NSC 08/08 Q1027 TEMPO 1200 MIFG
  • 210420Z 19002KT 3500 MIFG NSC 08/07 Q1027 TEMPO 2500 MIFG

TAF TAF EBOS
Valide du 21 à 06h jusqu'au 22 à 12h UTC


210510Z 2106/2212 24006KT 4000 MIFG BR NSC
BECMG 2106/2108 9999 NSW
PROB30
TEMPO 2113/2117 35010KT
Pas de NOTAMs connus pour ce terrain.



MET'MAP, la Météo Aéronautique d'un coup d'oeil ! - Copyright ORBIFLY Décembre 2007 - Disclaimer

ORBIFLY MET'MAP TEAM :

Programmation & Développement : Alexandra Zaïnal
Conception & Développement : Baudouin d'Aumeries
Co-Programmation & Développement : Marc-Olivier Méhu
Soutien technique & logistique : Manuel Goepfert

Contact : metmap@orbifly.com




SOURCES & CREDITS :

   NOAA